sensor_id;sensor_type;location;lat;lon;timestamp;P1;durP1;ratioP1;P2;durP2;ratioP2
77513;SDS011;66626;48.872;9.084;2024-01-06T00:01:43;9.85;;;2.63;;
77513;SDS011;66626;48.872;9.084;2024-01-06T00:04:08;6.05;;;2.22;;
77513;SDS011;66626;48.872;9.084;2024-01-06T00:06:34;6.78;;;2.70;;
77513;SDS011;66626;48.872;9.084;2024-01-06T00:08:59;5.78;;;2.17;;
77513;SDS011;66626;48.872;9.084;2024-01-06T00:11:24;8.48;;;2.60;;
77513;SDS011;66626;48.872;9.084;2024-01-06T00:13:50;5.32;;;2.28;;
77513;SDS011;66626;48.872;9.084;2024-01-06T00:16:21;6.90;;;2.22;;
77513;SDS011;66626;48.872;9.084;2024-01-06T00:18:46;5.25;;;1.60;;
77513;SDS011;66626;48.872;9.084;2024-01-06T00:21:12;6.47;;;2.63;;
77513;SDS011;66626;48.872;9.084;2024-01-06T00:23:37;9.88;;;2.08;;
77513;SDS011;66626;48.872;9.084;2024-01-06T00:26:03;7.45;;;1.83;;
77513;SDS011;66626;48.872;9.084;2024-01-06T00:28:28;5.75;;;1.92;;
77513;SDS011;66626;48.872;9.084;2024-01-06T00:30:54;5.35;;;1.55;;
77513;SDS011;66626;48.872;9.084;2024-01-06T00:33:20;3.72;;;1.67;;
77513;SDS011;66626;48.872;9.084;2024-01-06T00:35:45;7.70;;;1.90;;
77513;SDS011;66626;48.872;9.084;2024-01-06T00:38:11;4.97;;;1.90;;
77513;SDS011;66626;48.872;9.084;2024-01-06T00:40:36;6.97;;;1.50;;
77513;SDS011;66626;48.872;9.084;2024-01-06T00:43:02;3.92;;;1.23;;
77513;SDS011;66626;48.872;9.084;2024-01-06T00:45:27;6.22;;;1.60;;
77513;SDS011;66626;48.872;9.084;2024-01-06T00:47:52;6.35;;;1.67;;
77513;SDS011;66626;48.872;9.084;2024-01-06T00:50:18;4.03;;;1.70;;
77513;SDS011;66626;48.872;9.084;2024-01-06T00:52:46;5.35;;;1.60;;
77513;SDS011;66626;48.872;9.084;2024-01-06T00:55:11;7.00;;;1.58;;
77513;SDS011;66626;48.872;9.084;2024-01-06T00:57:37;4.55;;;1.65;;
77513;SDS011;66626;48.872;9.084;2024-01-06T01:00:05;4.93;;;1.45;;
77513;SDS011;66626;48.872;9.084;2024-01-06T01:02:31;3.30;;;1.45;;
77513;SDS011;66626;48.872;9.084;2024-01-06T01:04:56;4.68;;;1.70;;
77513;SDS011;66626;48.872;9.084;2024-01-06T01:07:22;7.82;;;2.00;;
77513;SDS011;66626;48.872;9.084;2024-01-06T01:09:47;6.40;;;1.35;;
77513;SDS011;66626;48.872;9.084;2024-01-06T01:12:12;3.10;;;1.50;;
77513;SDS011;66626;48.872;9.084;2024-01-06T01:14:38;3.83;;;1.15;;
77513;SDS011;66626;48.872;9.084;2024-01-06T01:17:03;3.45;;;1.60;;
77513;SDS011;66626;48.872;9.084;2024-01-06T01:19:29;3.00;;;1.25;;
77513;SDS011;66626;48.872;9.084;2024-01-06T01:21:55;5.15;;;1.30;;
77513;SDS011;66626;48.872;9.084;2024-01-06T01:24:23;5.28;;;1.33;;
77513;SDS011;66626;48.872;9.084;2024-01-06T01:26:49;2.70;;;0.90;;
77513;SDS011;66626;48.872;9.084;2024-01-06T01:29:15;6.82;;;1.27;;
77513;SDS011;66626;48.872;9.084;2024-01-06T01:31:41;6.63;;;1.20;;
77513;SDS011;66626;48.872;9.084;2024-01-06T01:34:06;2.75;;;0.93;;
77513;SDS011;66626;48.872;9.084;2024-01-06T01:36:32;3.63;;;1.42;;
77513;SDS011;66626;48.872;9.084;2024-01-06T01:38:57;2.60;;;1.13;;
77513;SDS011;66626;48.872;9.084;2024-01-06T01:41:22;3.08;;;1.48;;
77513;SDS011;66626;48.872;9.084;2024-01-06T01:43:48;2.75;;;1.30;;
77513;SDS011;66626;48.872;9.084;2024-01-06T01:46:13;2.85;;;1.20;;
77513;SDS011;66626;48.872;9.084;2024-01-06T01:48:38;5.18;;;1.35;;
77513;SDS011;66626;48.872;9.084;2024-01-06T01:51:04;4.10;;;1.10;;
77513;SDS011;66626;48.872;9.084;2024-01-06T01:53:29;11.02;;;4.30;;
77513;SDS011;66626;48.872;9.084;2024-01-06T01:55:55;13.93;;;3.90;;
77513;SDS011;66626;48.872;9.084;2024-01-06T01:58:21;5.10;;;1.48;;
77513;SDS011;66626;48.872;9.084;2024-01-06T02:00:46;3.20;;;1.40;;
77513;SDS011;66626;48.872;9.084;2024-01-06T02:03:11;3.80;;;1.52;;
77513;SDS011;66626;48.872;9.084;2024-01-06T02:05:38;6.30;;;1.40;;
77513;SDS011;66626;48.872;9.084;2024-01-06T02:08:03;7.13;;;1.35;;
77513;SDS011;66626;48.872;9.084;2024-01-06T02:10:29;4.10;;;1.10;;
77513;SDS011;66626;48.872;9.084;2024-01-06T02:12:54;5.93;;;1.45;;
77513;SDS011;66626;48.872;9.084;2024-01-06T02:15:19;4.03;;;1.10;;
77513;SDS011;66626;48.872;9.084;2024-01-06T02:17:45;4.28;;;1.30;;
77513;SDS011;66626;48.872;9.084;2024-01-06T02:20:11;3.25;;;1.17;;
77513;SDS011;66626;48.872;9.084;2024-01-06T02:22:36;4.13;;;1.38;;
77513;SDS011;66626;48.872;9.084;2024-01-06T02:25:02;2.97;;;0.98;;
77513;SDS011;66626;48.872;9.084;2024-01-06T02:29:57;6.40;;;1.30;;
77513;SDS011;66626;48.872;9.084;2024-01-06T02:32:23;3.95;;;1.20;;
77513;SDS011;66626;48.872;9.084;2024-01-06T02:34:48;3.78;;;1.40;;
77513;SDS011;66626;48.872;9.084;2024-01-06T02:37:13;5.82;;;1.02;;
77513;SDS011;66626;48.872;9.084;2024-01-06T02:39:38;3.03;;;1.30;;
77513;SDS011;66626;48.872;9.084;2024-01-06T02:42:04;4.25;;;1.13;;
77513;SDS011;66626;48.872;9.084;2024-01-06T02:44:30;11.68;;;1.40;;
77513;SDS011;66626;48.872;9.084;2024-01-06T02:46:55;3.30;;;1.50;;
77513;SDS011;66626;48.872;9.084;2024-01-06T02:49:20;5.85;;;1.10;;
77513;SDS011;66626;48.872;9.084;2024-01-06T02:51:45;4.68;;;1.15;;
77513;SDS011;66626;48.872;9.084;2024-01-06T02:54:11;3.50;;;1.55;;
77513;SDS011;66626;48.872;9.084;2024-01-06T02:56:36;4.78;;;1.60;;
77513;SDS011;66626;48.872;9.084;2024-01-06T02:59:03;3.58;;;1.17;;
77513;SDS011;66626;48.872;9.084;2024-01-06T03:01:28;6.03;;;1.60;;
77513;SDS011;66626;48.872;9.084;2024-01-06T03:03:53;5.63;;;1.00;;
77513;SDS011;66626;48.872;9.084;2024-01-06T03:06:19;10.57;;;1.10;;
77513;SDS011;66626;48.872;9.084;2024-01-06T03:08:44;4.35;;;1.33;;
77513;SDS011;66626;48.872;9.084;2024-01-06T03:11:10;4.80;;;1.25;;
77513;SDS011;66626;48.872;9.084;2024-01-06T03:13:35;4.28;;;1.45;;
77513;SDS011;66626;48.872;9.084;2024-01-06T03:16:04;5.15;;;1.25;;
77513;SDS011;66626;48.872;9.084;2024-01-06T03:18:30;11.10;;;3.92;;
77513;SDS011;66626;48.872;9.084;2024-01-06T03:20:55;6.72;;;1.10;;
77513;SDS011;66626;48.872;9.084;2024-01-06T03:23:20;5.15;;;1.20;;
77513;SDS011;66626;48.872;9.084;2024-01-06T03:25:46;4.72;;;1.23;;
77513;SDS011;66626;48.872;9.084;2024-01-06T03:28:11;4.57;;;1.40;;
77513;SDS011;66626;48.872;9.084;2024-01-06T03:30:36;2.67;;;1.10;;
77513;SDS011;66626;48.872;9.084;2024-01-06T03:33:02;2.45;;;1.00;;
77513;SDS011;66626;48.872;9.084;2024-01-06T03:35:27;3.92;;;1.17;;
77513;SDS011;66626;48.872;9.084;2024-01-06T03:37:53;9.57;;;1.45;;
77513;SDS011;66626;48.872;9.084;2024-01-06T03:40:18;3.80;;;1.15;;
77513;SDS011;66626;48.872;9.084;2024-01-06T03:42:43;5.50;;;1.50;;
77513;SDS011;66626;48.872;9.084;2024-01-06T03:45:09;6.15;;;1.52;;
77513;SDS011;66626;48.872;9.084;2024-01-06T03:47:34;9.02;;;3.08;;
77513;SDS011;66626;48.872;9.084;2024-01-06T03:49:59;8.18;;;3.90;;
77513;SDS011;66626;48.872;9.084;2024-01-06T03:52:25;4.18;;;1.48;;
77513;SDS011;66626;48.872;9.084;2024-01-06T03:54:50;3.92;;;1.20;;
77513;SDS011;66626;48.872;9.084;2024-01-06T03:57:15;5.35;;;1.50;;
77513;SDS011;66626;48.872;9.084;2024-01-06T03:59:41;7.43;;;1.88;;
77513;SDS011;66626;48.872;9.084;2024-01-06T04:02:07;2.55;;;1.13;;
77513;SDS011;66626;48.872;9.084;2024-01-06T04:04:32;6.53;;;1.70;;
77513;SDS011;66626;48.872;9.084;2024-01-06T04:06:57;2.30;;;0.90;;
77513;SDS011;66626;48.872;9.084;2024-01-06T04:09:23;4.38;;;1.50;;
77513;SDS011;66626;48.872;9.084;2024-01-06T04:11:48;3.45;;;1.00;;
77513;SDS011;66626;48.872;9.084;2024-01-06T04:14:13;2.90;;;1.13;;
77513;SDS011;66626;48.872;9.084;2024-01-06T04:16:39;8.13;;;1.42;;
77513;SDS011;66626;48.872;9.084;2024-01-06T04:19:04;7.00;;;1.38;;
77513;SDS011;66626;48.872;9.084;2024-01-06T04:21:32;6.63;;;1.40;;
77513;SDS011;66626;48.872;9.084;2024-01-06T04:23:57;3.25;;;1.58;;
77513;SDS011;66626;48.872;9.084;2024-01-06T04:26:23;5.75;;;1.70;;
77513;SDS011;66626;48.872;9.084;2024-01-06T04:28:48;9.63;;;1.83;;
77513;SDS011;66626;48.872;9.084;2024-01-06T04:31:13;3.92;;;1.38;;
77513;SDS011;66626;48.872;9.084;2024-01-06T04:33:39;5.72;;;1.23;;
77513;SDS011;66626;48.872;9.084;2024-01-06T04:36:05;5.43;;;1.38;;
77513;SDS011;66626;48.872;9.084;2024-01-06T04:38:31;4.57;;;1.50;;
77513;SDS011;66626;48.872;9.084;2024-01-06T04:40:56;4.90;;;1.50;;
77513;SDS011;66626;48.872;9.084;2024-01-06T04:43:22;5.68;;;1.52;;
77513;SDS011;66626;48.872;9.084;2024-01-06T04:45:47;5.10;;;1.33;;
77513;SDS011;66626;48.872;9.084;2024-01-06T04:48:12;4.88;;;1.40;;
77513;SDS011;66626;48.872;9.084;2024-01-06T04:50:38;4.82;;;1.00;;
77513;SDS011;66626;48.872;9.084;2024-01-06T04:53:03;5.25;;;1.20;;
77513;SDS011;66626;48.872;9.084;2024-01-06T04:55:28;3.95;;;1.35;;
77513;SDS011;66626;48.872;9.084;2024-01-06T04:57:53;4.80;;;1.50;;
77513;SDS011;66626;48.872;9.084;2024-01-06T05:00:19;7.53;;;1.98;;
77513;SDS011;66626;48.872;9.084;2024-01-06T05:02:44;5.07;;;2.10;;
77513;SDS011;66626;48.872;9.084;2024-01-06T05:05:09;9.13;;;2.00;;
77513;SDS011;66626;48.872;9.084;2024-01-06T05:07:35;3.53;;;1.42;;
77513;SDS011;66626;48.872;9.084;2024-01-06T05:10:00;6.32;;;1.30;;
77513;SDS011;66626;48.872;9.084;2024-01-06T05:12:25;6.05;;;1.88;;
77513;SDS011;66626;48.872;9.084;2024-01-06T05:14:51;5.55;;;2.25;;
77513;SDS011;66626;48.872;9.084;2024-01-06T05:17:16;6.10;;;1.58;;
77513;SDS011;66626;48.872;9.084;2024-01-06T05:19:41;7.05;;;1.77;;
77513;SDS011;66626;48.872;9.084;2024-01-06T05:22:06;4.43;;;1.75;;
77513;SDS011;66626;48.872;9.084;2024-01-06T05:24:32;3.70;;;1.40;;
77513;SDS011;66626;48.872;9.084;2024-01-06T05:26:57;5.35;;;1.60;;
77513;SDS011;66626;48.872;9.084;2024-01-06T05:29:22;5.13;;;1.27;;
77513;SDS011;66626;48.872;9.084;2024-01-06T05:31:49;3.75;;;1.50;;
77513;SDS011;66626;48.872;9.084;2024-01-06T05:34:15;4.57;;;1.88;;
77513;SDS011;66626;48.872;9.084;2024-01-06T05:36:40;6.10;;;1.58;;
77513;SDS011;66626;48.872;9.084;2024-01-06T05:39:05;5.32;;;1.23;;
77513;SDS011;66626;48.872;9.084;2024-01-06T05:41:37;6.68;;;1.83;;
77513;SDS011;66626;48.872;9.084;2024-01-06T05:44:03;6.47;;;1.67;;
77513;SDS011;66626;48.872;9.084;2024-01-06T05:46:28;6.38;;;1.98;;
77513;SDS011;66626;48.872;9.084;2024-01-06T05:48:53;4.07;;;1.65;;
77513;SDS011;66626;48.872;9.084;2024-01-06T05:51:21;6.32;;;1.73;;
77513;SDS011;66626;48.872;9.084;2024-01-06T05:53:46;6.07;;;1.83;;
77513;SDS011;66626;48.872;9.084;2024-01-06T05:56:11;5.78;;;1.77;;
77513;SDS011;66626;48.872;9.084;2024-01-06T05:58:37;4.25;;;1.77;;
77513;SDS011;66626;48.872;9.084;2024-01-06T06:01:02;7.18;;;1.52;;
77513;SDS011;66626;48.872;9.084;2024-01-06T06:03:27;3.70;;;1.70;;
77513;SDS011;66626;48.872;9.084;2024-01-06T06:05:53;7.10;;;1.88;;
77513;SDS011;66626;48.872;9.084;2024-01-06T06:08:18;3.72;;;1.50;;
77513;SDS011;66626;48.872;9.084;2024-01-06T06:10:44;8.27;;;1.75;;
77513;SDS011;66626;48.872;9.084;2024-01-06T06:13:30;3.80;;;1.80;;
77513;SDS011;66626;48.872;9.084;2024-01-06T06:15:55;4.45;;;1.80;;
77513;SDS011;66626;48.872;9.084;2024-01-06T06:18:20;5.43;;;1.73;;
77513;SDS011;66626;48.872;9.084;2024-01-06T06:20:46;5.38;;;1.88;;
77513;SDS011;66626;48.872;9.084;2024-01-06T06:23:12;3.70;;;1.52;;
77513;SDS011;66626;48.872;9.084;2024-01-06T06:25:40;4.63;;;1.40;;
77513;SDS011;66626;48.872;9.084;2024-01-06T06:28:06;6.18;;;1.55;;
77513;SDS011;66626;48.872;9.084;2024-01-06T06:30:31;5.55;;;2.45;;
77513;SDS011;66626;48.872;9.084;2024-01-06T06:32:57;5.95;;;2.00;;
77513;SDS011;66626;48.872;9.084;2024-01-06T06:35:22;6.05;;;1.45;;
77513;SDS011;66626;48.872;9.084;2024-01-06T06:37:49;4.88;;;2.22;;
77513;SDS011;66626;48.872;9.084;2024-01-06T06:40:14;5.13;;;2.22;;
77513;SDS011;66626;48.872;9.084;2024-01-06T06:42:40;3.83;;;1.70;;
77513;SDS011;66626;48.872;9.084;2024-01-06T06:45:05;6.10;;;1.90;;
77513;SDS011;66626;48.872;9.084;2024-01-06T06:47:30;5.57;;;2.13;;
77513;SDS011;66626;48.872;9.084;2024-01-06T06:49:56;4.65;;;1.80;;
77513;SDS011;66626;48.872;9.084;2024-01-06T06:52:21;4.22;;;2.10;;
77513;SDS011;66626;48.872;9.084;2024-01-06T06:54:46;3.78;;;1.55;;
77513;SDS011;66626;48.872;9.084;2024-01-06T06:57:13;5.63;;;2.25;;
77513;SDS011;66626;48.872;9.084;2024-01-06T06:59:39;4.70;;;1.95;;
77513;SDS011;66626;48.872;9.084;2024-01-06T07:02:04;6.82;;;2.28;;
77513;SDS011;66626;48.872;9.084;2024-01-06T07:04:30;7.13;;;3.08;;
77513;SDS011;66626;48.872;9.084;2024-01-06T07:06:55;6.47;;;2.95;;
77513;SDS011;66626;48.872;9.084;2024-01-06T07:09:22;7.93;;;2.97;;
77513;SDS011;66626;48.872;9.084;2024-01-06T07:11:48;5.55;;;2.13;;
77513;SDS011;66626;48.872;9.084;2024-01-06T07:14:13;8.27;;;2.78;;
77513;SDS011;66626;48.872;9.084;2024-01-06T07:16:39;5.20;;;1.63;;
77513;SDS011;66626;48.872;9.084;2024-01-06T07:19:04;3.35;;;1.40;;
77513;SDS011;66626;48.872;9.084;2024-01-06T07:21:30;4.25;;;1.30;;
77513;SDS011;66626;48.872;9.084;2024-01-06T07:23:55;3.92;;;1.55;;
77513;SDS011;66626;48.872;9.084;2024-01-06T07:26:21;2.78;;;1.13;;
77513;SDS011;66626;48.872;9.084;2024-01-06T07:28:46;4.40;;;1.13;;
77513;SDS011;66626;48.872;9.084;2024-01-06T07:31:12;3.30;;;1.60;;
77513;SDS011;66626;48.872;9.084;2024-01-06T07:33:37;3.72;;;1.60;;
77513;SDS011;66626;48.872;9.084;2024-01-06T07:36:02;3.88;;;1.30;;
77513;SDS011;66626;48.872;9.084;2024-01-06T07:38:28;5.60;;;1.40;;
77513;SDS011;66626;48.872;9.084;2024-01-06T07:40:55;4.63;;;1.33;;
77513;SDS011;66626;48.872;9.084;2024-01-06T07:43:21;2.78;;;1.27;;
77513;SDS011;66626;48.872;9.084;2024-01-06T07:45:46;4.65;;;1.40;;
77513;SDS011;66626;48.872;9.084;2024-01-06T07:48:11;4.07;;;1.15;;
77513;SDS011;66626;48.872;9.084;2024-01-06T07:50:37;4.78;;;1.42;;
77513;SDS011;66626;48.872;9.084;2024-01-06T07:53:03;2.88;;;1.30;;
77513;SDS011;66626;48.872;9.084;2024-01-06T07:55:28;4.88;;;1.35;;
77513;SDS011;66626;48.872;9.084;2024-01-06T07:57:54;4.45;;;1.42;;
77513;SDS011;66626;48.872;9.084;2024-01-06T08:00:19;2.88;;;1.20;;
77513;SDS011;66626;48.872;9.084;2024-01-06T08:02:44;4.68;;;1.63;;
77513;SDS011;66626;48.872;9.084;2024-01-06T08:05:10;3.90;;;1.50;;
77513;SDS011;66626;48.872;9.084;2024-01-06T08:07:38;3.17;;;1.30;;
77513;SDS011;66626;48.872;9.084;2024-01-06T08:10:04;4.95;;;1.77;;
77513;SDS011;66626;48.872;9.084;2024-01-06T08:12:30;7.47;;;2.83;;
77513;SDS011;66626;48.872;9.084;2024-01-06T08:14:56;7.72;;;3.35;;
77513;SDS011;66626;48.872;9.084;2024-01-06T08:17:21;6.28;;;3.00;;
77513;SDS011;66626;48.872;9.084;2024-01-06T08:19:46;6.60;;;3.00;;
77513;SDS011;66626;48.872;9.084;2024-01-06T08:22:12;6.80;;;2.72;;
77513;SDS011;66626;48.872;9.084;2024-01-06T08:24:38;7.85;;;3.13;;
77513;SDS011;66626;48.872;9.084;2024-01-06T08:27:03;7.55;;;3.30;;
77513;SDS011;66626;48.872;9.084;2024-01-06T08:29:29;5.15;;;2.33;;
77513;SDS011;66626;48.872;9.084;2024-01-06T08:31:54;4.45;;;2.22;;
77513;SDS011;66626;48.872;9.084;2024-01-06T08:34:20;6.05;;;2.35;;
77513;SDS011;66626;48.872;9.084;2024-01-06T08:36:45;5.47;;;2.33;;
77513;SDS011;66626;48.872;9.084;2024-01-06T08:39:11;4.78;;;2.00;;
77513;SDS011;66626;48.872;9.084;2024-01-06T08:41:37;5.25;;;2.45;;
77513;SDS011;66626;48.872;9.084;2024-01-06T08:44:03;5.57;;;2.13;;
77513;SDS011;66626;48.872;9.084;2024-01-06T08:46:29;5.53;;;2.00;;
77513;SDS011;66626;48.872;9.084;2024-01-06T08:48:55;5.85;;;2.33;;
77513;SDS011;66626;48.872;9.084;2024-01-06T08:51:20;5.35;;;2.15;;
77513;SDS011;66626;48.872;9.084;2024-01-06T08:53:46;5.85;;;2.70;;
77513;SDS011;66626;48.872;9.084;2024-01-06T08:56:11;6.55;;;2.35;;
77513;SDS011;66626;48.872;9.084;2024-01-06T08:58:36;3.15;;;1.73;;
77513;SDS011;66626;48.872;9.084;2024-01-06T09:01:02;5.32;;;2.20;;
77513;SDS011;66626;48.872;9.084;2024-01-06T09:03:27;4.22;;;1.70;;
77513;SDS011;66626;48.872;9.084;2024-01-06T09:05:53;6.55;;;2.95;;
77513;SDS011;66626;48.872;9.084;2024-01-06T09:08:20;4.22;;;2.05;;
77513;SDS011;66626;48.872;9.084;2024-01-06T09:10:45;4.78;;;1.95;;
77513;SDS011;66626;48.872;9.084;2024-01-06T09:13:10;6.22;;;2.50;;
77513;SDS011;66626;48.872;9.084;2024-01-06T09:15:36;5.70;;;2.17;;
77513;SDS011;66626;48.872;9.084;2024-01-06T09:18:01;6.07;;;2.03;;
77513;SDS011;66626;48.872;9.084;2024-01-06T09:20:27;4.95;;;2.50;;
77513;SDS011;66626;48.872;9.084;2024-01-06T09:22:53;7.38;;;2.92;;
77513;SDS011;66626;48.872;9.084;2024-01-06T09:25:19;6.68;;;2.47;;
77513;SDS011;66626;48.872;9.084;2024-01-06T09:27:44;4.80;;;2.28;;
77513;SDS011;66626;48.872;9.084;2024-01-06T09:30:10;5.65;;;2.17;;
77513;SDS011;66626;48.872;9.084;2024-01-06T09:32:36;4.53;;;2.00;;
77513;SDS011;66626;48.872;9.084;2024-01-06T09:35:01;4.13;;;2.10;;
77513;SDS011;66626;48.872;9.084;2024-01-06T09:37:30;8.45;;;2.63;;
77513;SDS011;66626;48.872;9.084;2024-01-06T09:39:55;6.18;;;2.67;;
77513;SDS011;66626;48.872;9.084;2024-01-06T09:42:20;4.88;;;2.30;;
77513;SDS011;66626;48.872;9.084;2024-01-06T09:44:46;5.53;;;1.88;;
77513;SDS011;66626;48.872;9.084;2024-01-06T09:47:11;5.57;;;2.25;;
77513;SDS011;66626;48.872;9.084;2024-01-06T09:49:38;4.47;;;1.85;;
77513;SDS011;66626;48.872;9.084;2024-01-06T09:52:04;6.32;;;2.55;;
77513;SDS011;66626;48.872;9.084;2024-01-06T09:54:36;6.30;;;2.47;;
77513;SDS011;66626;48.872;9.084;2024-01-06T09:57:02;6.38;;;2.35;;
77513;SDS011;66626;48.872;9.084;2024-01-06T09:59:28;9.75;;;4.25;;
77513;SDS011;66626;48.872;9.084;2024-01-06T10:01:55;6.30;;;1.70;;
77513;SDS011;66626;48.872;9.084;2024-01-06T10:04:22;5.60;;;2.08;;
77513;SDS011;66626;48.872;9.084;2024-01-06T10:06:47;3.15;;;1.52;;
77513;SDS011;66626;48.872;9.084;2024-01-06T10:09:13;7.30;;;2.40;;
77513;SDS011;66626;48.872;9.084;2024-01-06T10:11:38;5.60;;;1.90;;
77513;SDS011;66626;48.872;9.084;2024-01-06T10:14:06;4.57;;;1.75;;
77513;SDS011;66626;48.872;9.084;2024-01-06T10:16:31;5.47;;;2.03;;
77513;SDS011;66626;48.872;9.084;2024-01-06T10:18:59;6.38;;;2.10;;
77513;SDS011;66626;48.872;9.084;2024-01-06T10:21:24;4.07;;;2.03;;
77513;SDS011;66626;48.872;9.084;2024-01-06T10:23:50;5.40;;;2.22;;
77513;SDS011;66626;48.872;9.084;2024-01-06T10:26:16;4.07;;;1.85;;
77513;SDS011;66626;48.872;9.084;2024-01-06T10:28:42;4.63;;;2.00;;
77513;SDS011;66626;48.872;9.084;2024-01-06T10:31:08;4.30;;;1.98;;
77513;SDS011;66626;48.872;9.084;2024-01-06T10:33:33;4.18;;;1.92;;
77513;SDS011;66626;48.872;9.084;2024-01-06T10:36:00;24.48;;;12.80;;
77513;SDS011;66626;48.872;9.084;2024-01-06T10:38:26;4.75;;;2.25;;
77513;SDS011;66626;48.872;9.084;2024-01-06T10:41:01;5.70;;;2.33;;
77513;SDS011;66626;48.872;9.084;2024-01-06T10:43:34;5.85;;;2.58;;
77513;SDS011;66626;48.872;9.084;2024-01-06T10:46:02;5.45;;;2.20;;
77513;SDS011;66626;48.872;9.084;2024-01-06T10:48:32;5.97;;;2.72;;
77513;SDS011;66626;48.872;9.084;2024-01-06T10:53:26;4.78;;;2.58;;
77513;SDS011;66626;48.872;9.084;2024-01-06T10:55:51;5.68;;;3.08;;
77513;SDS011;66626;48.872;9.084;2024-01-06T10:58:17;7.65;;;2.80;;
77513;SDS011;66626;48.872;9.084;2024-01-06T11:00:43;6.38;;;2.60;;
77513;SDS011;66626;48.872;9.084;2024-01-06T11:03:09;7.95;;;2.97;;
77513;SDS011;66626;48.872;9.084;2024-01-06T11:05:35;6.70;;;3.10;;
77513;SDS011;66626;48.872;9.084;2024-01-06T11:08:01;8.27;;;2.92;;
77513;SDS011;66626;48.872;9.084;2024-01-06T11:10:28;8.55;;;3.38;;
77513;SDS011;66626;48.872;9.084;2024-01-06T11:13:13;6.30;;;3.15;;
77513;SDS011;66626;48.872;9.084;2024-01-06T11:15:47;10.80;;;4.30;;
77513;SDS011;66626;48.872;9.084;2024-01-06T11:18:30;7.47;;;3.47;;
77513;SDS011;66626;48.872;9.084;2024-01-06T11:23:38;6.55;;;3.08;;
77513;SDS011;66626;48.872;9.084;2024-01-06T11:26:03;10.57;;;3.00;;
77513;SDS011;66626;48.872;9.084;2024-01-06T11:28:31;5.88;;;2.70;;
77513;SDS011;66626;48.872;9.084;2024-01-06T11:31:09;6.30;;;2.78;;
77513;SDS011;66626;48.872;9.084;2024-01-06T11:33:41;6.32;;;2.95;;
77513;SDS011;66626;48.872;9.084;2024-01-06T11:36:10;7.50;;;3.35;;
77513;SDS011;66626;48.872;9.084;2024-01-06T11:38:38;6.65;;;2.97;;
77513;SDS011;66626;48.872;9.084;2024-01-06T11:41:07;8.18;;;3.58;;
77513;SDS011;66626;48.872;9.084;2024-01-06T11:43:34;9.15;;;3.75;;
77513;SDS011;66626;48.872;9.084;2024-01-06T11:46:00;10.60;;;3.85;;
77513;SDS011;66626;48.872;9.084;2024-01-06T11:48:27;9.45;;;4.65;;
77513;SDS011;66626;48.872;9.084;2024-01-06T11:50:54;6.45;;;3.15;;
77513;SDS011;66626;48.872;9.084;2024-01-06T11:53:20;8.18;;;3.70;;
77513;SDS011;66626;48.872;9.084;2024-01-06T11:55:48;7.45;;;3.55;;
77513;SDS011;66626;48.872;9.084;2024-01-06T11:58:16;8.10;;;3.40;;
77513;SDS011;66626;48.872;9.084;2024-01-06T12:00:41;5.93;;;2.88;;
77513;SDS011;66626;48.872;9.084;2024-01-06T12:03:09;6.78;;;3.10;;
77513;SDS011;66626;48.872;9.084;2024-01-06T12:05:34;7.85;;;4.05;;
77513;SDS011;66626;48.872;9.084;2024-01-06T12:08:01;10.07;;;5.35;;
77513;SDS011;66626;48.872;9.084;2024-01-06T12:10:29;22.83;;;10.90;;
77513;SDS011;66626;48.872;9.084;2024-01-06T12:12:55;11.13;;;4.72;;
77513;SDS011;66626;48.872;9.084;2024-01-06T12:15:23;6.75;;;4.18;;
77513;SDS011;66626;48.872;9.084;2024-01-06T12:17:48;7.60;;;3.42;;
77513;SDS011;66626;48.872;9.084;2024-01-06T12:20:14;8.63;;;4.07;;
77513;SDS011;66626;48.872;9.084;2024-01-06T12:22:39;8.45;;;3.55;;
77513;SDS011;66626;48.872;9.084;2024-01-06T12:25:05;7.85;;;3.72;;
77513;SDS011;66626;48.872;9.084;2024-01-06T12:27:31;6.28;;;3.03;;
77513;SDS011;66626;48.872;9.084;2024-01-06T12:29:57;6.13;;;2.50;;
77513;SDS011;66626;48.872;9.084;2024-01-06T12:32:22;6.70;;;3.25;;
77513;SDS011;66626;48.872;9.084;2024-01-06T12:34:48;7.57;;;2.85;;
77513;SDS011;66626;48.872;9.084;2024-01-06T12:37:13;5.88;;;2.70;;
77513;SDS011;66626;48.872;9.084;2024-01-06T12:39:39;5.68;;;2.67;;
77513;SDS011;66626;48.872;9.084;2024-01-06T12:42:07;6.63;;;3.08;;
77513;SDS011;66626;48.872;9.084;2024-01-06T12:44:33;5.97;;;3.10;;
77513;SDS011;66626;48.872;9.084;2024-01-06T12:47:01;9.30;;;4.60;;
77513;SDS011;66626;48.872;9.084;2024-01-06T12:49:27;6.50;;;2.92;;
77513;SDS011;66626;48.872;9.084;2024-01-06T12:51:52;7.32;;;3.40;;
77513;SDS011;66626;48.872;9.084;2024-01-06T12:54:18;7.35;;;3.13;;
77513;SDS011;66626;48.872;9.084;2024-01-06T12:56:43;6.75;;;2.90;;
77513;SDS011;66626;48.872;9.084;2024-01-06T12:59:08;8.73;;;3.90;;
77513;SDS011;66626;48.872;9.084;2024-01-06T13:01:34;10.90;;;5.28;;
77513;SDS011;66626;48.872;9.084;2024-01-06T13:03:59;11.55;;;5.70;;
77513;SDS011;66626;48.872;9.084;2024-01-06T13:06:26;6.85;;;3.28;;
77513;SDS011;66626;48.872;9.084;2024-01-06T13:08:52;7.35;;;3.22;;
77513;SDS011;66626;48.872;9.084;2024-01-06T13:11:17;6.03;;;3.22;;
77513;SDS011;66626;48.872;9.084;2024-01-06T13:13:43;5.78;;;3.13;;
77513;SDS011;66626;48.872;9.084;2024-01-06T13:16:08;10.68;;;4.80;;
77513;SDS011;66626;48.872;9.084;2024-01-06T13:18:34;9.23;;;4.10;;
77513;SDS011;66626;48.872;9.084;2024-01-06T13:21:00;8.35;;;3.88;;
77513;SDS011;66626;48.872;9.084;2024-01-06T13:23:26;8.43;;;4.20;;
77513;SDS011;66626;48.872;9.084;2024-01-06T13:25:52;9.18;;;3.53;;
77513;SDS011;66626;48.872;9.084;2024-01-06T13:28:17;8.10;;;4.07;;
77513;SDS011;66626;48.872;9.084;2024-01-06T13:30:43;6.45;;;3.28;;
77513;SDS011;66626;48.872;9.084;2024-01-06T13:33:08;7.63;;;3.28;;
77513;SDS011;66626;48.872;9.084;2024-01-06T13:35:36;7.38;;;3.72;;
77513;SDS011;66626;48.872;9.084;2024-01-06T13:38:02;8.32;;;3.67;;
77513;SDS011;66626;48.872;9.084;2024-01-06T13:40:29;7.13;;;3.72;;
77513;SDS011;66626;48.872;9.084;2024-01-06T13:42:55;6.90;;;3.47;;
77513;SDS011;66626;48.872;9.084;2024-01-06T13:45:20;45.22;;;18.27;;
77513;SDS011;66626;48.872;9.084;2024-01-06T13:47:45;11.73;;;5.65;;
77513;SDS011;66626;48.872;9.084;2024-01-06T13:50:11;9.18;;;4.70;;
77513;SDS011;66626;48.872;9.084;2024-01-06T13:52:37;9.18;;;4.35;;
77513;SDS011;66626;48.872;9.084;2024-01-06T13:55:03;8.20;;;4.70;;
77513;SDS011;66626;48.872;9.084;2024-01-06T13:57:29;8.95;;;4.35;;
77513;SDS011;66626;48.872;9.084;2024-01-06T13:59:55;12.15;;;6.40;;
77513;SDS011;66626;48.872;9.084;2024-01-06T14:02:22;9.52;;;4.72;;
77513;SDS011;66626;48.872;9.084;2024-01-06T14:04:47;7.28;;;3.85;;
77513;SDS011;66626;48.872;9.084;2024-01-06T14:07:13;10.27;;;4.55;;
77513;SDS011;66626;48.872;9.084;2024-01-06T14:09:38;12.40;;;5.32;;
77513;SDS011;66626;48.872;9.084;2024-01-06T14:12:04;14.40;;;5.75;;
77513;SDS011;66626;48.872;9.084;2024-01-06T14:14:33;20.42;;;7.47;;
77513;SDS011;66626;48.872;9.084;2024-01-06T14:16:58;8.32;;;4.22;;
77513;SDS011;66626;48.872;9.084;2024-01-06T14:19:24;15.88;;;7.82;;
77513;SDS011;66626;48.872;9.084;2024-01-06T14:21:49;12.23;;;5.60;;
77513;SDS011;66626;48.872;9.084;2024-01-06T14:24:15;10.70;;;6.00;;
77513;SDS011;66626;48.872;9.084;2024-01-06T14:26:43;9.10;;;4.57;;
77513;SDS011;66626;48.872;9.084;2024-01-06T14:29:09;12.93;;;5.25;;
77513;SDS011;66626;48.872;9.084;2024-01-06T14:31:34;11.00;;;4.97;;
77513;SDS011;66626;48.872;9.084;2024-01-06T14:34:00;13.27;;;6.20;;
77513;SDS011;66626;48.872;9.084;2024-01-06T14:36:25;10.57;;;5.20;;
77513;SDS011;66626;48.872;9.084;2024-01-06T14:38:53;17.55;;;7.55;;
77513;SDS011;66626;48.872;9.084;2024-01-06T14:41:19;21.45;;;9.23;;
77513;SDS011;66626;48.872;9.084;2024-01-06T14:43:45;22.05;;;8.65;;
77513;SDS011;66626;48.872;9.084;2024-01-06T14:46:10;18.23;;;7.93;;